sensor_id;sensor_type;location;lat;lon;timestamp;temperature;humidity
60234;DHT22;49514;43.538;-5.708;2023-04-25T00:02:24;18.40;99.90
60234;DHT22;49514;43.538;-5.708;2023-04-25T00:04:51;18.40;99.90
60234;DHT22;49514;43.538;-5.708;2023-04-25T00:07:18;18.40;99.90
60234;DHT22;49514;43.538;-5.708;2023-04-25T00:09:45;18.40;99.90
60234;DHT22;49514;43.538;-5.708;2023-04-25T00:12:12;18.40;99.90
60234;DHT22;49514;43.538;-5.708;2023-04-25T00:14:38;18.40;99.90
60234;DHT22;49514;43.538;-5.708;2023-04-25T00:17:05;18.40;99.90
60234;DHT22;49514;43.538;-5.708;2023-04-25T00:19:32;18.40;99.90
60234;DHT22;49514;43.538;-5.708;2023-04-25T00:21:58;18.30;99.90
60234;DHT22;49514;43.538;-5.708;2023-04-25T00:24:25;18.30;99.90
60234;DHT22;49514;43.538;-5.708;2023-04-25T00:26:52;18.30;99.90
60234;DHT22;49514;43.538;-5.708;2023-04-25T00:29:18;18.30;99.90
60234;DHT22;49514;43.538;-5.708;2023-04-25T00:31:45;18.30;99.90
60234;DHT22;49514;43.538;-5.708;2023-04-25T00:34:11;18.30;99.90
60234;DHT22;49514;43.538;-5.708;2023-04-25T00:36:38;18.30;99.90
60234;DHT22;49514;43.538;-5.708;2023-04-25T00:39:05;18.30;99.90
60234;DHT22;49514;43.538;-5.708;2023-04-25T00:41:32;18.30;99.90
60234;DHT22;49514;43.538;-5.708;2023-04-25T00:44:00;18.30;99.90
60234;DHT22;49514;43.538;-5.708;2023-04-25T00:46:27;18.30;99.90
60234;DHT22;49514;43.538;-5.708;2023-04-25T00:48:53;18.20;99.90
60234;DHT22;49514;43.538;-5.708;2023-04-25T00:51:21;18.20;99.90
60234;DHT22;49514;43.538;-5.708;2023-04-25T00:53:49;18.20;99.90
60234;DHT22;49514;43.538;-5.708;2023-04-25T00:56:16;18.20;99.90
60234;DHT22;49514;43.538;-5.708;2023-04-25T00:58:43;18.20;99.90
60234;DHT22;49514;43.538;-5.708;2023-04-25T01:01:11;18.20;99.90
60234;DHT22;49514;43.538;-5.708;2023-04-25T01:03:39;18.20;99.90
60234;DHT22;49514;43.538;-5.708;2023-04-25T01:06:09;18.20;99.90
60234;DHT22;49514;43.538;-5.708;2023-04-25T01:08:38;18.20;99.90
60234;DHT22;49514;43.538;-5.708;2023-04-25T01:11:06;18.20;99.90
60234;DHT22;49514;43.538;-5.708;2023-04-25T01:13:33;18.20;99.90
60234;DHT22;49514;43.538;-5.708;2023-04-25T01:16:00;18.20;99.90
60234;DHT22;49514;43.538;-5.708;2023-04-25T01:18:28;18.20;99.90
60234;DHT22;49514;43.538;-5.708;2023-04-25T01:20:55;18.20;99.90
60234;DHT22;49514;43.538;-5.708;2023-04-25T01:23:22;18.10;99.90
60234;DHT22;49514;43.538;-5.708;2023-04-25T01:25:49;18.10;99.90
60234;DHT22;49514;43.538;-5.708;2023-04-25T01:28:17;18.10;99.90
60234;DHT22;49514;43.538;-5.708;2023-04-25T01:30:44;18.10;99.90
60234;DHT22;49514;43.538;-5.708;2023-04-25T01:33:14;18.10;99.90
60234;DHT22;49514;43.538;-5.708;2023-04-25T01:35:41;18.10;99.90
60234;DHT22;49514;43.538;-5.708;2023-04-25T01:38:08;18.10;99.90
60234;DHT22;49514;43.538;-5.708;2023-04-25T01:40:38;18.10;99.90
60234;DHT22;49514;43.538;-5.708;2023-04-25T01:43:05;18.10;99.90
60234;DHT22;49514;43.538;-5.708;2023-04-25T01:45:32;18.10;99.90
60234;DHT22;49514;43.538;-5.708;2023-04-25T01:47:59;18.00;99.90
60234;DHT22;49514;43.538;-5.708;2023-04-25T01:50:26;18.10;99.90
60234;DHT22;49514;43.538;-5.708;2023-04-25T01:52:53;18.10;99.90
60234;DHT22;49514;43.538;-5.708;2023-04-25T01:55:20;18.00;99.90
60234;DHT22;49514;43.538;-5.708;2023-04-25T01:57:58;18.00;99.90
60234;DHT22;49514;43.538;-5.708;2023-04-25T02:00:38;18.00;99.90
60234;DHT22;49514;43.538;-5.708;2023-04-25T02:03:07;18.00;99.90
60234;DHT22;49514;43.538;-5.708;2023-04-25T02:05:36;18.00;99.90
60234;DHT22;49514;43.538;-5.708;2023-04-25T02:08:06;18.00;99.90
60234;DHT22;49514;43.538;-5.708;2023-04-25T02:10:33;18.00;99.90
60234;DHT22;49514;43.538;-5.708;2023-04-25T02:13:19;18.00;99.90
60234;DHT22;49514;43.538;-5.708;2023-04-25T02:16:02;18.00;99.90
60234;DHT22;49514;43.538;-5.708;2023-04-25T02:18:30;18.00;99.90
60234;DHT22;49514;43.538;-5.708;2023-04-25T02:20:59;17.90;99.90
60234;DHT22;49514;43.538;-5.708;2023-04-25T02:23:26;17.90;99.90
60234;DHT22;49514;43.538;-5.708;2023-04-25T02:25:53;17.90;99.90
60234;DHT22;49514;43.538;-5.708;2023-04-25T02:28:21;17.90;99.90
60234;DHT22;49514;43.538;-5.708;2023-04-25T02:30:48;17.80;99.90
60234;DHT22;49514;43.538;-5.708;2023-04-25T02:33:14;17.80;99.90
60234;DHT22;49514;43.538;-5.708;2023-04-25T02:35:43;17.80;99.90
60234;DHT22;49514;43.538;-5.708;2023-04-25T02:38:09;17.80;99.90
60234;DHT22;49514;43.538;-5.708;2023-04-25T02:40:36;17.80;99.90
60234;DHT22;49514;43.538;-5.708;2023-04-25T02:43:02;17.80;99.90
60234;DHT22;49514;43.538;-5.708;2023-04-25T02:45:29;17.80;99.90
60234;DHT22;49514;43.538;-5.708;2023-04-25T02:47:56;17.80;99.90
60234;DHT22;49514;43.538;-5.708;2023-04-25T02:50:22;17.80;99.90
60234;DHT22;49514;43.538;-5.708;2023-04-25T02:52:49;17.80;99.90
60234;DHT22;49514;43.538;-5.708;2023-04-25T02:55:20;17.80;99.90
60234;DHT22;49514;43.538;-5.708;2023-04-25T02:57:48;17.70;99.90
60234;DHT22;49514;43.538;-5.708;2023-04-25T03:00:24;17.70;99.90
60234;DHT22;49514;43.538;-5.708;2023-04-25T03:02:51;17.80;99.90
60234;DHT22;49514;43.538;-5.708;2023-04-25T03:05:17;17.70;99.90
60234;DHT22;49514;43.538;-5.708;2023-04-25T03:07:44;17.70;99.90
60234;DHT22;49514;43.538;-5.708;2023-04-25T03:10:12;17.60;99.90
60234;DHT22;49514;43.538;-5.708;2023-04-25T03:12:38;17.60;99.90
60234;DHT22;49514;43.538;-5.708;2023-04-25T03:15:05;17.60;99.90
60234;DHT22;49514;43.538;-5.708;2023-04-25T03:17:32;17.50;99.90
60234;DHT22;49514;43.538;-5.708;2023-04-25T03:19:59;17.50;99.90
60234;DHT22;49514;43.538;-5.708;2023-04-25T03:22:26;17.50;99.90
60234;DHT22;49514;43.538;-5.708;2023-04-25T03:24:52;17.50;99.90
60234;DHT22;49514;43.538;-5.708;2023-04-25T03:27:19;17.50;99.90
60234;DHT22;49514;43.538;-5.708;2023-04-25T03:29:46;17.50;99.90
60234;DHT22;49514;43.538;-5.708;2023-04-25T03:32:13;17.40;99.90
60234;DHT22;49514;43.538;-5.708;2023-04-25T03:34:40;17.40;99.90
60234;DHT22;49514;43.538;-5.708;2023-04-25T03:37:07;17.40;99.90
60234;DHT22;49514;43.538;-5.708;2023-04-25T03:39:37;17.40;99.90
60234;DHT22;49514;43.538;-5.708;2023-04-25T03:42:04;17.40;99.90
60234;DHT22;49514;43.538;-5.708;2023-04-25T03:44:31;17.40;99.90
60234;DHT22;49514;43.538;-5.708;2023-04-25T03:46:59;17.30;99.90
60234;DHT22;49514;43.538;-5.708;2023-04-25T03:49:25;17.30;99.90
60234;DHT22;49514;43.538;-5.708;2023-04-25T03:51:57;17.40;99.90
60234;DHT22;49514;43.538;-5.708;2023-04-25T03:54:24;17.30;99.90
60234;DHT22;49514;43.538;-5.708;2023-04-25T03:56:58;17.30;99.90
60234;DHT22;49514;43.538;-5.708;2023-04-25T03:59:27;17.30;99.90
60234;DHT22;49514;43.538;-5.708;2023-04-25T04:01:54;17.30;99.90
60234;DHT22;49514;43.538;-5.708;2023-04-25T04:04:22;17.30;99.90
60234;DHT22;49514;43.538;-5.708;2023-04-25T04:06:48;17.30;99.90
60234;DHT22;49514;43.538;-5.708;2023-04-25T04:09:23;17.30;99.90
60234;DHT22;49514;43.538;-5.708;2023-04-25T04:11:50;17.20;99.90
60234;DHT22;49514;43.538;-5.708;2023-04-25T04:14:17;17.20;99.90
60234;DHT22;49514;43.538;-5.708;2023-04-25T04:16:45;17.20;99.90
60234;DHT22;49514;43.538;-5.708;2023-04-25T04:19:12;17.20;99.90
60234;DHT22;49514;43.538;-5.708;2023-04-25T04:21:44;17.20;99.90
60234;DHT22;49514;43.538;-5.708;2023-04-25T04:24:10;17.20;99.90
60234;DHT22;49514;43.538;-5.708;2023-04-25T04:26:51;17.20;99.90
60234;DHT22;49514;43.538;-5.708;2023-04-25T04:29:44;17.10;99.90
60234;DHT22;49514;43.538;-5.708;2023-04-25T04:32:16;17.10;99.90
60234;DHT22;49514;43.538;-5.708;2023-04-25T04:34:44;17.10;99.90
60234;DHT22;49514;43.538;-5.708;2023-04-25T04:37:14;17.00;99.90
60234;DHT22;49514;43.538;-5.708;2023-04-25T04:39:42;17.00;99.90
60234;DHT22;49514;43.538;-5.708;2023-04-25T04:42:33;17.00;99.90
60234;DHT22;49514;43.538;-5.708;2023-04-25T04:45:12;17.00;99.90
60234;DHT22;49514;43.538;-5.708;2023-04-25T04:47:49;16.90;99.90
60234;DHT22;49514;43.538;-5.708;2023-04-25T04:50:24;16.90;99.90
60234;DHT22;49514;43.538;-5.708;2023-04-25T04:53:17;16.90;99.90
60234;DHT22;49514;43.538;-5.708;2023-04-25T04:56:06;17.00;99.90
60234;DHT22;49514;43.538;-5.708;2023-04-25T04:58:48;17.00;99.90
60234;DHT22;49514;43.538;-5.708;2023-04-25T05:01:34;17.00;99.90
60234;DHT22;49514;43.538;-5.708;2023-04-25T05:04:08;17.00;99.90
60234;DHT22;49514;43.538;-5.708;2023-04-25T05:06:46;17.00;99.90
60234;DHT22;49514;43.538;-5.708;2023-04-25T05:09:24;17.00;99.90
60234;DHT22;49514;43.538;-5.708;2023-04-25T05:12:09;17.00;99.90
60234;DHT22;49514;43.538;-5.708;2023-04-25T05:14:57;17.00;99.90
60234;DHT22;49514;43.538;-5.708;2023-04-25T05:17:43;17.00;99.90
60234;DHT22;49514;43.538;-5.708;2023-04-25T05:20:28;17.00;99.90
60234;DHT22;49514;43.538;-5.708;2023-04-25T05:22:54;17.00;99.90
60234;DHT22;49514;43.538;-5.708;2023-04-25T05:25:34;17.00;99.90
60234;DHT22;49514;43.538;-5.708;2023-04-25T05:28:18;16.90;99.90
60234;DHT22;49514;43.538;-5.708;2023-04-25T05:30:44;16.90;99.90
60234;DHT22;49514;43.538;-5.708;2023-04-25T05:33:16;17.00;99.90
60234;DHT22;49514;43.538;-5.708;2023-04-25T05:35:44;17.00;99.90
60234;DHT22;49514;43.538;-5.708;2023-04-25T05:38:11;17.00;99.90
60234;DHT22;49514;43.538;-5.708;2023-04-25T05:41:01;17.00;99.90
60234;DHT22;49514;43.538;-5.708;2023-04-25T05:43:47;17.00;99.90
60234;DHT22;49514;43.538;-5.708;2023-04-25T05:46:42;17.10;99.90
60234;DHT22;49514;43.538;-5.708;2023-04-25T05:49:21;17.10;99.90
60234;DHT22;49514;43.538;-5.708;2023-04-25T05:52:13;17.10;99.90
60234;DHT22;49514;43.538;-5.708;2023-04-25T05:54:50;17.10;99.90
60234;DHT22;49514;43.538;-5.708;2023-04-25T05:57:21;17.10;99.90
60234;DHT22;49514;43.538;-5.708;2023-04-25T05:59:47;17.10;99.90
60234;DHT22;49514;43.538;-5.708;2023-04-25T06:02:14;17.10;99.90
60234;DHT22;49514;43.538;-5.708;2023-04-25T06:04:42;17.10;99.90
60234;DHT22;49514;43.538;-5.708;2023-04-25T06:07:09;17.10;99.90
60234;DHT22;49514;43.538;-5.708;2023-04-25T06:09:36;17.10;99.90
60234;DHT22;49514;43.538;-5.708;2023-04-25T06:12:05;17.00;99.90
60234;DHT22;49514;43.538;-5.708;2023-04-25T06:14:32;17.00;99.90
60234;DHT22;49514;43.538;-5.708;2023-04-25T06:16:59;17.00;99.90
60234;DHT22;49514;43.538;-5.708;2023-04-25T06:19:26;17.00;99.90
60234;DHT22;49514;43.538;-5.708;2023-04-25T06:21:53;17.10;99.90
60234;DHT22;49514;43.538;-5.708;2023-04-25T06:24:20;17.10;99.90
60234;DHT22;49514;43.538;-5.708;2023-04-25T06:26:46;17.10;99.90
60234;DHT22;49514;43.538;-5.708;2023-04-25T06:29:14;17.20;99.90
60234;DHT22;49514;43.538;-5.708;2023-04-25T06:31:40;17.20;99.90
60234;DHT22;49514;43.538;-5.708;2023-04-25T06:34:07;17.30;99.90
60234;DHT22;49514;43.538;-5.708;2023-04-25T06:36:37;17.30;99.90
60234;DHT22;49514;43.538;-5.708;2023-04-25T06:39:07;17.40;99.90
60234;DHT22;49514;43.538;-5.708;2023-04-25T06:41:35;17.50;99.90
60234;DHT22;49514;43.538;-5.708;2023-04-25T06:44:05;17.50;99.90
60234;DHT22;49514;43.538;-5.708;2023-04-25T06:46:50;17.60;99.90
60234;DHT22;49514;43.538;-5.708;2023-04-25T06:49:16;17.60;99.90
60234;DHT22;49514;43.538;-5.708;2023-04-25T06:51:43;17.70;99.90
60234;DHT22;49514;43.538;-5.708;2023-04-25T06:54:09;17.70;99.90
60234;DHT22;49514;43.538;-5.708;2023-04-25T06:56:43;17.80;99.90
60234;DHT22;49514;43.538;-5.708;2023-04-25T06:59:14;18.00;99.90
60234;DHT22;49514;43.538;-5.708;2023-04-25T07:01:42;18.10;99.90
60234;DHT22;49514;43.538;-5.708;2023-04-25T07:04:16;18.20;99.90
60234;DHT22;49514;43.538;-5.708;2023-04-25T07:06:50;18.30;99.90
60234;DHT22;49514;43.538;-5.708;2023-04-25T07:09:22;18.40;99.90
60234;DHT22;49514;43.538;-5.708;2023-04-25T07:11:50;18.60;99.90
60234;DHT22;49514;43.538;-5.708;2023-04-25T07:14:16;18.70;99.90
60234;DHT22;49514;43.538;-5.708;2023-04-25T07:16:43;18.80;99.90
60234;DHT22;49514;43.538;-5.708;2023-04-25T07:19:10;18.90;99.90
60234;DHT22;49514;43.538;-5.708;2023-04-25T07:21:37;19.00;99.90
60234;DHT22;49514;43.538;-5.708;2023-04-25T07:24:05;19.00;99.90
60234;DHT22;49514;43.538;-5.708;2023-04-25T07:26:36;19.10;99.90
60234;DHT22;49514;43.538;-5.708;2023-04-25T07:29:25;19.10;99.90
60234;DHT22;49514;43.538;-5.708;2023-04-25T07:31:52;19.20;99.90
60234;DHT22;49514;43.538;-5.708;2023-04-25T07:34:20;19.30;99.90
60234;DHT22;49514;43.538;-5.708;2023-04-25T07:36:47;19.40;99.90
60234;DHT22;49514;43.538;-5.708;2023-04-25T07:39:13;19.50;99.90
60234;DHT22;49514;43.538;-5.708;2023-04-25T07:41:41;19.70;99.90
60234;DHT22;49514;43.538;-5.708;2023-04-25T07:44:12;19.80;99.90
60234;DHT22;49514;43.538;-5.708;2023-04-25T07:46:40;20.00;99.90
60234;DHT22;49514;43.538;-5.708;2023-04-25T07:49:07;20.20;99.90
60234;DHT22;49514;43.538;-5.708;2023-04-25T07:51:34;20.30;99.90
60234;DHT22;49514;43.538;-5.708;2023-04-25T07:54:05;20.50;99.90
60234;DHT22;49514;43.538;-5.708;2023-04-25T07:56:36;20.60;99.90
60234;DHT22;49514;43.538;-5.708;2023-04-25T07:59:02;20.70;99.90
60234;DHT22;49514;43.538;-5.708;2023-04-25T08:01:30;20.90;99.90
60234;DHT22;49514;43.538;-5.708;2023-04-25T08:03:59;21.00;99.90
60234;DHT22;49514;43.538;-5.708;2023-04-25T08:06:45;21.10;99.90
60234;DHT22;49514;43.538;-5.708;2023-04-25T08:09:20;21.30;99.90
60234;DHT22;49514;43.538;-5.708;2023-04-25T08:11:47;21.40;99.90
60234;DHT22;49514;43.538;-5.708;2023-04-25T08:14:17;21.40;99.90
60234;DHT22;49514;43.538;-5.708;2023-04-25T08:16:44;21.50;99.90
60234;DHT22;49514;43.538;-5.708;2023-04-25T08:19:12;21.60;99.90
60234;DHT22;49514;43.538;-5.708;2023-04-25T08:21:39;21.70;99.90
60234;DHT22;49514;43.538;-5.708;2023-04-25T08:24:10;21.60;99.90
60234;DHT22;49514;43.538;-5.708;2023-04-25T08:26:39;21.50;99.90
60234;DHT22;49514;43.538;-5.708;2023-04-25T08:29:08;21.40;99.90
60234;DHT22;49514;43.538;-5.708;2023-04-25T08:31:38;21.40;99.90
60234;DHT22;49514;43.538;-5.708;2023-04-25T08:34:07;21.50;99.90
60234;DHT22;49514;43.538;-5.708;2023-04-25T08:36:38;21.60;99.90
60234;DHT22;49514;43.538;-5.708;2023-04-25T08:39:06;21.60;99.90
60234;DHT22;49514;43.538;-5.708;2023-04-25T08:41:40;21.50;99.90
60234;DHT22;49514;43.538;-5.708;2023-04-25T08:44:10;21.40;99.90
60234;DHT22;49514;43.538;-5.708;2023-04-25T08:46:38;21.40;99.90
60234;DHT22;49514;43.538;-5.708;2023-04-25T08:49:26;21.40;99.90
60234;DHT22;49514;43.538;-5.708;2023-04-25T08:51:53;21.70;99.90
60234;DHT22;49514;43.538;-5.708;2023-04-25T08:54:23;21.90;99.90
60234;DHT22;49514;43.538;-5.708;2023-04-25T08:56:55;22.00;99.90
60234;DHT22;49514;43.538;-5.708;2023-04-25T08:59:24;22.10;99.90
60234;DHT22;49514;43.538;-5.708;2023-04-25T09:01:51;22.10;99.90
60234;DHT22;49514;43.538;-5.708;2023-04-25T09:04:21;22.20;99.90
60234;DHT22;49514;43.538;-5.708;2023-04-25T09:06:48;22.30;99.90
60234;DHT22;49514;43.538;-5.708;2023-04-25T09:09:15;22.40;99.90
60234;DHT22;49514;43.538;-5.708;2023-04-25T09:11:42;22.50;99.90
60234;DHT22;49514;43.538;-5.708;2023-04-25T09:14:14;22.60;99.90
60234;DHT22;49514;43.538;-5.708;2023-04-25T09:17:07;22.40;99.90
60234;DHT22;49514;43.538;-5.708;2023-04-25T09:19:53;22.40;99.90
60234;DHT22;49514;43.538;-5.708;2023-04-25T09:22:28;22.30;99.90
60234;DHT22;49514;43.538;-5.708;2023-04-25T09:24:56;22.20;99.90
60234;DHT22;49514;43.538;-5.708;2023-04-25T09:27:26;22.10;99.90
60234;DHT22;49514;43.538;-5.708;2023-04-25T09:30:02;22.10;99.90
60234;DHT22;49514;43.538;-5.708;2023-04-25T09:32:45;22.20;99.90
60234;DHT22;49514;43.538;-5.708;2023-04-25T09:35:24;22.20;99.90
60234;DHT22;49514;43.538;-5.708;2023-04-25T09:37:52;22.20;99.90
60234;DHT22;49514;43.538;-5.708;2023-04-25T09:40:46;22.30;99.90
60234;DHT22;49514;43.538;-5.708;2023-04-25T09:43:23;22.30;99.90
60234;DHT22;49514;43.538;-5.708;2023-04-25T09:45:53;22.50;99.90
60234;DHT22;49514;43.538;-5.708;2023-04-25T09:48:25;22.60;99.90
60234;DHT22;49514;43.538;-5.708;2023-04-25T09:53:39;22.50;99.90
60234;DHT22;49514;43.538;-5.708;2023-04-25T09:56:20;22.30;99.90
60234;DHT22;49514;43.538;-5.708;2023-04-25T09:58:50;22.20;99.90
60234;DHT22;49514;43.538;-5.708;2023-04-25T10:01:21;22.00;99.90
60234;DHT22;49514;43.538;-5.708;2023-04-25T10:04:11;21.90;99.90
60234;DHT22;49514;43.538;-5.708;2023-04-25T10:06:58;21.60;99.90
60234;DHT22;49514;43.538;-5.708;2023-04-25T10:09:26;21.50;99.90
60234;DHT22;49514;43.538;-5.708;2023-04-25T10:11:58;21.50;99.90
60234;DHT22;49514;43.538;-5.708;2023-04-25T10:14:25;21.60;99.90
60234;DHT22;49514;43.538;-5.708;2023-04-25T10:16:53;21.70;99.90
60234;DHT22;49514;43.538;-5.708;2023-04-25T10:19:21;21.60;99.90
60234;DHT22;49514;43.538;-5.708;2023-04-25T10:22:08;21.50;99.90
60234;DHT22;49514;43.538;-5.708;2023-04-25T10:24:38;21.40;99.90
60234;DHT22;49514;43.538;-5.708;2023-04-25T10:27:05;21.50;99.90
60234;DHT22;49514;43.538;-5.708;2023-04-25T10:29:32;21.70;99.90
60234;DHT22;49514;43.538;-5.708;2023-04-25T10:31:58;22.00;99.90
60234;DHT22;49514;43.538;-5.708;2023-04-25T10:34:41;22.30;99.90
60234;DHT22;49514;43.538;-5.708;2023-04-25T10:37:08;22.60;99.90
60234;DHT22;49514;43.538;-5.708;2023-04-25T10:39:35;23.00;99.90
60234;DHT22;49514;43.538;-5.708;2023-04-25T10:42:02;23.50;99.90
60234;DHT22;49514;43.538;-5.708;2023-04-25T10:44:29;23.60;99.90
60234;DHT22;49514;43.538;-5.708;2023-04-25T10:46:57;23.90;99.90
60234;DHT22;49514;43.538;-5.708;2023-04-25T10:49:31;24.00;99.90
60234;DHT22;49514;43.538;-5.708;2023-04-25T10:52:44;24.30;99.90
60234;DHT22;49514;43.538;-5.708;2023-04-25T10:54:46;24.60;99.90
60234;DHT22;49514;43.538;-5.708;2023-04-25T11:00:05;25.00;99.90
60234;DHT22;49514;43.538;-5.708;2023-04-25T11:02:36;25.00;99.90
60234;DHT22;49514;43.538;-5.708;2023-04-25T11:05:03;25.10;99.90
60234;DHT22;49514;43.538;-5.708;2023-04-25T11:07:43;25.10;99.90
60234;DHT22;49514;43.538;-5.708;2023-04-25T11:10:10;25.30;99.90
60234;DHT22;49514;43.538;-5.708;2023-04-25T11:12:36;25.40;99.90
60234;DHT22;49514;43.538;-5.708;2023-04-25T11:15:06;25.50;99.90
60234;DHT22;49514;43.538;-5.708;2023-04-25T11:17:33;25.60;99.90
60234;DHT22;49514;43.538;-5.708;2023-04-25T11:20:00;25.50;99.90
60234;DHT22;49514;43.538;-5.708;2023-04-25T11:22:27;25.60;99.90
60234;DHT22;49514;43.538;-5.708;2023-04-25T11:24:54;25.60;99.90
60234;DHT22;49514;43.538;-5.708;2023-04-25T11:27:20;25.60;99.90
60234;DHT22;49514;43.538;-5.708;2023-04-25T11:29:47;25.30;99.90
60234;DHT22;49514;43.538;-5.708;2023-04-25T11:32:14;24.90;99.90
60234;DHT22;49514;43.538;-5.708;2023-04-25T11:34:42;24.80;99.90
60234;DHT22;49514;43.538;-5.708;2023-04-25T11:37:09;24.70;99.90
60234;DHT22;49514;43.538;-5.708;2023-04-25T11:39:37;24.90;99.90
60234;DHT22;49514;43.538;-5.708;2023-04-25T11:42:04;25.20;99.90
60234;DHT22;49514;43.538;-5.708;2023-04-25T11:44:56;25.60;99.90
60234;DHT22;49514;43.538;-5.708;2023-04-25T11:47:30;26.00;99.90
60234;DHT22;49514;43.538;-5.708;2023-04-25T11:49:58;26.20;99.90
60234;DHT22;49514;43.538;-5.708;2023-04-25T11:52:35;26.20;99.90
60234;DHT22;49514;43.538;-5.708;2023-04-25T11:55:03;26.20;99.90
60234;DHT22;49514;43.538;-5.708;2023-04-25T11:57:31;26.30;99.90
60234;DHT22;49514;43.538;-5.708;2023-04-25T12:00:10;26.30;99.90
60234;DHT22;49514;43.538;-5.708;2023-04-25T12:02:40;26.50;99.90
60234;DHT22;49514;43.538;-5.708;2023-04-25T12:05:07;26.50;99.90
60234;DHT22;49514;43.538;-5.708;2023-04-25T12:07:34;26.40;99.90
60234;DHT22;49514;43.538;-5.708;2023-04-25T12:10:07;26.50;99.90
60234;DHT22;49514;43.538;-5.708;2023-04-25T12:12:34;26.80;99.90
60234;DHT22;49514;43.538;-5.708;2023-04-25T12:17:38;27.60;99.60
60234;DHT22;49514;43.538;-5.708;2023-04-25T12:20:24;27.90;99.80
60234;DHT22;49514;43.538;-5.708;2023-04-25T12:22:51;27.90;99.90
60234;DHT22;49514;43.538;-5.708;2023-04-25T12:25:33;27.80;99.40
60234;DHT22;49514;43.538;-5.708;2023-04-25T12:28:13;27.90;98.70
60234;DHT22;49514;43.538;-5.708;2023-04-25T12:33:25;27.50;98.00
60234;DHT22;49514;43.538;-5.708;2023-04-25T12:35:53;27.20;97.80
60234;DHT22;49514;43.538;-5.708;2023-04-25T12:38:26;27.10;98.80
60234;DHT22;49514;43.538;-5.708;2023-04-25T12:40:53;27.00;99.10
60234;DHT22;49514;43.538;-5.708;2023-04-25T12:43:20;26.90;99.40
60234;DHT22;49514;43.538;-5.708;2023-04-25T12:45:48;26.90;99.70
60234;DHT22;49514;43.538;-5.708;2023-04-25T12:48:16;27.00;99.30
60234;DHT22;49514;43.538;-5.708;2023-04-25T12:50:43;27.20;99.40
60234;DHT22;49514;43.538;-5.708;2023-04-25T12:53:09;27.20;99.10
60234;DHT22;49514;43.538;-5.708;2023-04-25T12:55:36;27.00;98.30
60234;DHT22;49514;43.538;-5.708;2023-04-25T12:58:02;26.90;99.00
60234;DHT22;49514;43.538;-5.708;2023-04-25T13:00:29;26.90;98.80
60234;DHT22;49514;43.538;-5.708;2023-04-25T13:02:56;26.80;98.30
60234;DHT22;49514;43.538;-5.708;2023-04-25T13:05:23;26.80;98.90
60234;DHT22;49514;43.538;-5.708;2023-04-25T13:07:49;26.90;98.90
60234;DHT22;49514;43.538;-5.708;2023-04-25T13:10:15;27.00;98.40
60234;DHT22;49514;43.538;-5.708;2023-04-25T13:12:42;27.10;98.20
60234;DHT22;49514;43.538;-5.708;2023-04-25T13:15:08;27.40;98.00
60234;DHT22;49514;43.538;-5.708;2023-04-25T13:17:37;27.70;97.60
60234;DHT22;49514;43.538;-5.708;2023-04-25T13:20:07;28.30;97.10
60234;DHT22;49514;43.538;-5.708;2023-04-25T13:22:35;28.40;95.80
60234;DHT22;49514;43.538;-5.708;2023-04-25T13:25:03;28.70;96.60
60234;DHT22;49514;43.538;-5.708;2023-04-25T13:27:30;28.80;95.10
60234;DHT22;49514;43.538;-5.708;2023-04-25T13:29:58;28.90;95.50
60234;DHT22;49514;43.538;-5.708;2023-04-25T13:32:25;28.80;95.20
60234;DHT22;49514;43.538;-5.708;2023-04-25T13:34:52;28.50;95.80
60234;DHT22;49514;43.538;-5.708;2023-04-25T13:37:19;28.30;95.40
60234;DHT22;49514;43.538;-5.708;2023-04-25T13:39:46;28.10;96.20
60234;DHT22;49514;43.538;-5.708;2023-04-25T13:42:12;27.90;95.60
60234;DHT22;49514;43.538;-5.708;2023-04-25T13:44:39;27.70;96.30
60234;DHT22;49514;43.538;-5.708;2023-04-25T13:47:06;27.80;95.30
60234;DHT22;49514;43.538;-5.708;2023-04-25T13:49:33;28.30;95.80
60234;DHT22;49514;43.538;-5.708;2023-04-25T13:52:00;28.80;95.40
60234;DHT22;49514;43.538;-5.708;2023-04-25T13:54:27;29.40;94.60
60234;DHT22;49514;43.538;-5.708;2023-04-25T13:56:53;29.80;93.80
60234;DHT22;49514;43.538;-5.708;2023-04-25T13:59:24;29.70;93.30
60234;DHT22;49514;43.538;-5.708;2023-04-25T14:01:51;29.50;93.70
60234;DHT22;49514;43.538;-5.708;2023-04-25T14:04:18;29.20;93.00
60234;DHT22;49514;43.538;-5.708;2023-04-25T14:06:44;28.90;92.80
60234;DHT22;49514;43.538;-5.708;2023-04-25T14:09:11;28.50;93.60
60234;DHT22;49514;43.538;-5.708;2023-04-25T14:11:39;28.10;94.00
60234;DHT22;49514;43.538;-5.708;2023-04-25T14:14:05;27.90;94.20
60234;DHT22;49514;43.538;-5.708;2023-04-25T14:16:32;28.00;94.60
60234;DHT22;49514;43.538;-5.708;2023-04-25T14:18:58;28.00;99.00
60234;DHT22;49514;43.538;-5.708;2023-04-25T14:21:25;27.60;93.40
60234;DHT22;49514;43.538;-5.708;2023-04-25T14:23:52;27.30;93.60
60234;DHT22;49514;43.538;-5.708;2023-04-25T14:26:19;27.00;94.20
60234;DHT22;49514;43.538;-5.708;2023-04-25T14:28:46;26.70;94.60
60234;DHT22;49514;43.538;-5.708;2023-04-25T14:31:12;26.60;94.60
60234;DHT22;49514;43.538;-5.708;2023-04-25T14:33:38;26.50;94.80
60234;DHT22;49514;43.538;-5.708;2023-04-25T14:36:08;26.50;94.50
60234;DHT22;49514;43.538;-5.708;2023-04-25T14:38:36;26.30;94.40
60234;DHT22;49514;43.538;-5.708;2023-04-25T14:41:03;26.10;95.00
60234;DHT22;49514;43.538;-5.708;2023-04-25T14:43:29;25.80;95.40
60234;DHT22;49514;43.538;-5.708;2023-04-25T14:45:56;25.60;95.80
60234;DHT22;49514;43.538;-5.708;2023-04-25T14:48:22;25.40;96.10
60234;DHT22;49514;43.538;-5.708;2023-04-25T14:50:49;25.00;96.90
60234;DHT22;49514;43.538;-5.708;2023-04-25T14:53:16;24.90;98.20
60234;DHT22;49514;43.538;-5.708;2023-04-25T14:55:42;24.80;98.10
60234;DHT22;49514;43.538;-5.708;2023-04-25T14:58:09;24.80;97.90
60234;DHT22;49514;43.538;-5.708;2023-04-25T15:00:35;24.80;98.30
60234;DHT22;49514;43.538;-5.708;2023-04-25T15:03:03;24.90;98.80
60234;DHT22;49514;43.538;-5.708;2023-04-25T15:05:30;24.90;98.40
60234;DHT22;49514;43.538;-5.708;2023-04-25T15:07:56;24.90;98.50
60234;DHT22;49514;43.538;-5.708;2023-04-25T15:10:23;24.70;99.40
60234;DHT22;49514;43.538;-5.708;2023-04-25T15:12:49;24.50;99.60
60234;DHT22;49514;43.538;-5.708;2023-04-25T15:15:16;24.50;99.90
60234;DHT22;49514;43.538;-5.708;2023-04-25T15:17:43;24.30;99.90
60234;DHT22;49514;43.538;-5.708;2023-04-25T15:20:11;24.20;99.90
60234;DHT22;49514;43.538;-5.708;2023-04-25T15:22:38;24.00;99.90
60234;DHT22;49514;43.538;-5.708;2023-04-25T15:25:05;23.80;99.90
60234;DHT22;49514;43.538;-5.708;2023-04-25T15:27:34;23.70;99.90
60234;DHT22;49514;43.538;-5.708;2023-04-25T15:30:05;23.60;99.90
60234;DHT22;49514;43.538;-5.708;2023-04-25T15:32:33;23.50;99.90
60234;DHT22;49514;43.538;-5.708;2023-04-25T15:35:01;23.50;99.90
60234;DHT22;49514;43.538;-5.708;2023-04-25T15:37:29;23.50;99.90
60234;DHT22;49514;43.538;-5.708;2023-04-25T15:40:03;23.60;99.90
60234;DHT22;49514;43.538;-5.708;2023-04-25T15:42:35;23.80;99.90
60234;DHT22;49514;43.538;-5.708;2023-04-25T15:45:03;23.80;99.90